sensor_id;sensor_type;location;lat;lon;timestamp;P1;durP1;ratioP1;P2;durP2;ratioP2
61356;SDS011;47227;46.752;23.576;2024-03-08T00:00:40;30.20;;;15.20;;
61356;SDS011;47227;46.752;23.576;2024-03-08T00:03:30;23.80;;;13.50;;
61356;SDS011;47227;46.752;23.576;2024-03-08T00:06:00;28.70;;;14.80;;
61356;SDS011;47227;46.752;23.576;2024-03-08T00:08:29;24.50;;;14.20;;
61356;SDS011;47227;46.752;23.576;2024-03-08T00:10:59;25.00;;;14.80;;
61356;SDS011;47227;46.752;23.576;2024-03-08T00:13:27;26.60;;;14.80;;
61356;SDS011;47227;46.752;23.576;2024-03-08T00:15:56;28.10;;;15.90;;
61356;SDS011;47227;46.752;23.576;2024-03-08T00:18:25;28.80;;;14.70;;
61356;SDS011;47227;46.752;23.576;2024-03-08T00:20:54;32.30;;;15.70;;
61356;SDS011;47227;46.752;23.576;2024-03-08T00:23:24;27.80;;;14.60;;
61356;SDS011;47227;46.752;23.576;2024-03-08T00:25:52;29.70;;;15.70;;
61356;SDS011;47227;46.752;23.576;2024-03-08T00:28:22;23.80;;;13.90;;
61356;SDS011;47227;46.752;23.576;2024-03-08T00:30:50;29.50;;;16.30;;
61356;SDS011;47227;46.752;23.576;2024-03-08T00:33:18;24.30;;;14.00;;
61356;SDS011;47227;46.752;23.576;2024-03-08T00:35:47;31.10;;;15.40;;
61356;SDS011;47227;46.752;23.576;2024-03-08T00:38:15;31.40;;;15.10;;
61356;SDS011;47227;46.752;23.576;2024-03-08T00:40:44;27.50;;;14.90;;
61356;SDS011;47227;46.752;23.576;2024-03-08T00:43:13;30.50;;;15.90;;
61356;SDS011;47227;46.752;23.576;2024-03-08T00:45:43;25.80;;;14.90;;
61356;SDS011;47227;46.752;23.576;2024-03-08T00:48:12;28.90;;;15.30;;
61356;SDS011;47227;46.752;23.576;2024-03-08T00:50:40;26.90;;;15.00;;
61356;SDS011;47227;46.752;23.576;2024-03-08T00:53:09;22.60;;;13.60;;
61356;SDS011;47227;46.752;23.576;2024-03-08T00:55:39;26.70;;;14.70;;
61356;SDS011;47227;46.752;23.576;2024-03-08T00:58:07;26.50;;;14.70;;
61356;SDS011;47227;46.752;23.576;2024-03-08T01:00:37;27.20;;;14.50;;
61356;SDS011;47227;46.752;23.576;2024-03-08T01:03:07;29.00;;;14.70;;
61356;SDS011;47227;46.752;23.576;2024-03-08T01:05:35;24.40;;;14.20;;
61356;SDS011;47227;46.752;23.576;2024-03-08T01:08:04;25.70;;;13.80;;
61356;SDS011;47227;46.752;23.576;2024-03-08T01:10:32;26.40;;;14.90;;
61356;SDS011;47227;46.752;23.576;2024-03-08T01:13:01;25.40;;;14.40;;
61356;SDS011;47227;46.752;23.576;2024-03-08T01:15:29;28.10;;;15.20;;
61356;SDS011;47227;46.752;23.576;2024-03-08T01:17:58;28.30;;;15.20;;
61356;SDS011;47227;46.752;23.576;2024-03-08T01:20:27;26.00;;;14.40;;
61356;SDS011;47227;46.752;23.576;2024-03-08T01:22:56;27.60;;;14.70;;
61356;SDS011;47227;46.752;23.576;2024-03-08T01:25:25;27.00;;;14.40;;
61356;SDS011;47227;46.752;23.576;2024-03-08T01:27:53;30.10;;;15.00;;
61356;SDS011;47227;46.752;23.576;2024-03-08T01:30:22;27.40;;;14.90;;
61356;SDS011;47227;46.752;23.576;2024-03-08T01:32:51;29.20;;;14.40;;
61356;SDS011;47227;46.752;23.576;2024-03-08T01:35:19;29.80;;;15.20;;
61356;SDS011;47227;46.752;23.576;2024-03-08T01:37:50;26.60;;;15.50;;
61356;SDS011;47227;46.752;23.576;2024-03-08T01:40:19;26.40;;;14.70;;
61356;SDS011;47227;46.752;23.576;2024-03-08T01:42:47;27.70;;;14.20;;
61356;SDS011;47227;46.752;23.576;2024-03-08T01:45:16;28.90;;;15.00;;
61356;SDS011;47227;46.752;23.576;2024-03-08T01:47:44;28.00;;;14.90;;
61356;SDS011;47227;46.752;23.576;2024-03-08T01:50:16;27.70;;;14.40;;
61356;SDS011;47227;46.752;23.576;2024-03-08T01:52:45;31.90;;;15.60;;
61356;SDS011;47227;46.752;23.576;2024-03-08T01:55:13;28.20;;;14.70;;
61356;SDS011;47227;46.752;23.576;2024-03-08T01:57:43;26.90;;;14.60;;
61356;SDS011;47227;46.752;23.576;2024-03-08T02:00:11;24.30;;;14.90;;
61356;SDS011;47227;46.752;23.576;2024-03-08T02:02:41;26.60;;;15.00;;
61356;SDS011;47227;46.752;23.576;2024-03-08T02:05:11;27.90;;;14.70;;
61356;SDS011;47227;46.752;23.576;2024-03-08T02:07:42;27.90;;;14.60;;
61356;SDS011;47227;46.752;23.576;2024-03-08T02:10:12;23.60;;;14.20;;
61356;SDS011;47227;46.752;23.576;2024-03-08T02:12:41;28.40;;;14.90;;
61356;SDS011;47227;46.752;23.576;2024-03-08T02:15:09;23.60;;;13.80;;
61356;SDS011;47227;46.752;23.576;2024-03-08T02:17:39;26.30;;;14.50;;
61356;SDS011;47227;46.752;23.576;2024-03-08T02:20:07;24.00;;;13.70;;
61356;SDS011;47227;46.752;23.576;2024-03-08T02:22:38;22.80;;;13.10;;
61356;SDS011;47227;46.752;23.576;2024-03-08T02:25:07;26.70;;;14.50;;
61356;SDS011;47227;46.752;23.576;2024-03-08T02:27:36;29.50;;;14.80;;
61356;SDS011;47227;46.752;23.576;2024-03-08T02:30:05;32.00;;;16.00;;
61356;SDS011;47227;46.752;23.576;2024-03-08T02:32:34;25.50;;;14.20;;
61356;SDS011;47227;46.752;23.576;2024-03-08T02:35:03;30.60;;;14.70;;
61356;SDS011;47227;46.752;23.576;2024-03-08T02:37:34;26.40;;;14.50;;
61356;SDS011;47227;46.752;23.576;2024-03-08T02:40:02;30.20;;;15.50;;
61356;SDS011;47227;46.752;23.576;2024-03-08T02:42:31;28.90;;;15.20;;
61356;SDS011;47227;46.752;23.576;2024-03-08T02:45:00;27.70;;;14.30;;
61356;SDS011;47227;46.752;23.576;2024-03-08T02:47:29;27.50;;;14.30;;
61356;SDS011;47227;46.752;23.576;2024-03-08T02:49:59;26.20;;;14.10;;
61356;SDS011;47227;46.752;23.576;2024-03-08T02:52:29;28.10;;;14.60;;
61356;SDS011;47227;46.752;23.576;2024-03-08T02:54:58;26.60;;;14.50;;
61356;SDS011;47227;46.752;23.576;2024-03-08T02:57:27;28.00;;;14.80;;
61356;SDS011;47227;46.752;23.576;2024-03-08T02:59:56;32.40;;;15.30;;
61356;SDS011;47227;46.752;23.576;2024-03-08T03:02:25;29.70;;;14.80;;
61356;SDS011;47227;46.752;23.576;2024-03-08T03:04:54;28.90;;;14.60;;
61356;SDS011;47227;46.752;23.576;2024-03-08T03:07:24;25.00;;;14.40;;
61356;SDS011;47227;46.752;23.576;2024-03-08T03:09:55;28.30;;;15.20;;
61356;SDS011;47227;46.752;23.576;2024-03-08T03:12:24;29.60;;;15.40;;
61356;SDS011;47227;46.752;23.576;2024-03-08T03:14:52;28.10;;;14.90;;
61356;SDS011;47227;46.752;23.576;2024-03-08T03:17:21;27.10;;;14.60;;
61356;SDS011;47227;46.752;23.576;2024-03-08T03:19:52;26.20;;;14.60;;
61356;SDS011;47227;46.752;23.576;2024-03-08T03:22:21;28.50;;;15.00;;
61356;SDS011;47227;46.752;23.576;2024-03-08T03:24:49;30.80;;;15.40;;
61356;SDS011;47227;46.752;23.576;2024-03-08T03:27:19;31.90;;;15.50;;
61356;SDS011;47227;46.752;23.576;2024-03-08T03:29:48;31.30;;;15.30;;
61356;SDS011;47227;46.752;23.576;2024-03-08T03:32:17;26.10;;;14.30;;
61356;SDS011;47227;46.752;23.576;2024-03-08T03:34:49;28.10;;;15.00;;
61356;SDS011;47227;46.752;23.576;2024-03-08T03:37:21;26.90;;;15.10;;
61356;SDS011;47227;46.752;23.576;2024-03-08T03:39:49;31.60;;;15.40;;
61356;SDS011;47227;46.752;23.576;2024-03-08T03:42:20;32.30;;;16.10;;
61356;SDS011;47227;46.752;23.576;2024-03-08T03:44:49;35.40;;;17.00;;
61356;SDS011;47227;46.752;23.576;2024-03-08T03:47:17;31.30;;;14.90;;
61356;SDS011;47227;46.752;23.576;2024-03-08T03:49:46;29.30;;;14.50;;
61356;SDS011;47227;46.752;23.576;2024-03-08T03:52:15;32.90;;;15.90;;
61356;SDS011;47227;46.752;23.576;2024-03-08T03:54:43;30.50;;;14.90;;
61356;SDS011;47227;46.752;23.576;2024-03-08T03:57:12;31.50;;;16.20;;
61356;SDS011;47227;46.752;23.576;2024-03-08T03:59:40;30.50;;;15.80;;
61356;SDS011;47227;46.752;23.576;2024-03-08T04:02:09;28.80;;;14.20;;
61356;SDS011;47227;46.752;23.576;2024-03-08T04:04:37;29.30;;;14.20;;
61356;SDS011;47227;46.752;23.576;2024-03-08T04:07:06;27.20;;;14.00;;
61356;SDS011;47227;46.752;23.576;2024-03-08T04:09:35;27.60;;;14.30;;
61356;SDS011;47227;46.752;23.576;2024-03-08T04:12:04;26.60;;;13.60;;
61356;SDS011;47227;46.752;23.576;2024-03-08T04:14:33;27.70;;;13.50;;
61356;SDS011;47227;46.752;23.576;2024-03-08T04:17:02;28.80;;;14.30;;
61356;SDS011;47227;46.752;23.576;2024-03-08T04:19:31;31.20;;;14.20;;
61356;SDS011;47227;46.752;23.576;2024-03-08T04:21:59;23.50;;;14.00;;
61356;SDS011;47227;46.752;23.576;2024-03-08T04:24:29;23.60;;;12.90;;
61356;SDS011;47227;46.752;23.576;2024-03-08T04:26:59;29.40;;;13.50;;
61356;SDS011;47227;46.752;23.576;2024-03-08T04:29:27;31.30;;;15.40;;
61356;SDS011;47227;46.752;23.576;2024-03-08T04:31:56;31.80;;;14.90;;
61356;SDS011;47227;46.752;23.576;2024-03-08T04:34:26;30.10;;;14.40;;
61356;SDS011;47227;46.752;23.576;2024-03-08T04:36:57;29.50;;;15.00;;
61356;SDS011;47227;46.752;23.576;2024-03-08T04:39:26;30.40;;;16.00;;
61356;SDS011;47227;46.752;23.576;2024-03-08T04:41:58;34.30;;;16.50;;
61356;SDS011;47227;46.752;23.576;2024-03-08T04:44:33;34.10;;;16.20;;
61356;SDS011;47227;46.752;23.576;2024-03-08T04:47:01;28.90;;;15.30;;
61356;SDS011;47227;46.752;23.576;2024-03-08T04:49:30;28.60;;;15.90;;
61356;SDS011;47227;46.752;23.576;2024-03-08T04:51:58;27.60;;;15.00;;
61356;SDS011;47227;46.752;23.576;2024-03-08T04:54:27;28.70;;;15.30;;
61356;SDS011;47227;46.752;23.576;2024-03-08T04:56:55;29.40;;;15.50;;
61356;SDS011;47227;46.752;23.576;2024-03-08T04:59:24;29.90;;;15.20;;
61356;SDS011;47227;46.752;23.576;2024-03-08T05:01:53;29.40;;;15.50;;
61356;SDS011;47227;46.752;23.576;2024-03-08T05:04:21;32.00;;;15.90;;
61356;SDS011;47227;46.752;23.576;2024-03-08T05:06:50;91.20;;;37.30;;
61356;SDS011;47227;46.752;23.576;2024-03-08T05:09:18;103.00;;;39.00;;
61356;SDS011;47227;46.752;23.576;2024-03-08T05:11:47;73.40;;;32.00;;
61356;SDS011;47227;46.752;23.576;2024-03-08T05:14:16;47.30;;;22.10;;
61356;SDS011;47227;46.752;23.576;2024-03-08T05:16:45;43.20;;;19.50;;
61356;SDS011;47227;46.752;23.576;2024-03-08T05:19:19;36.60;;;17.20;;
61356;SDS011;47227;46.752;23.576;2024-03-08T05:21:49;29.30;;;15.10;;
61356;SDS011;47227;46.752;23.576;2024-03-08T05:24:18;31.90;;;15.40;;
61356;SDS011;47227;46.752;23.576;2024-03-08T05:26:47;28.90;;;14.60;;
61356;SDS011;47227;46.752;23.576;2024-03-08T05:29:16;30.40;;;14.90;;
61356;SDS011;47227;46.752;23.576;2024-03-08T05:31:48;27.40;;;15.20;;
61356;SDS011;47227;46.752;23.576;2024-03-08T05:34:18;30.20;;;16.00;;
61356;SDS011;47227;46.752;23.576;2024-03-08T05:36:50;27.60;;;15.30;;
61356;SDS011;47227;46.752;23.576;2024-03-08T05:39:19;29.70;;;14.80;;
61356;SDS011;47227;46.752;23.576;2024-03-08T05:41:50;29.50;;;15.20;;
61356;SDS011;47227;46.752;23.576;2024-03-08T05:44:19;36.40;;;15.70;;
61356;SDS011;47227;46.752;23.576;2024-03-08T05:46:47;30.60;;;15.80;;
61356;SDS011;47227;46.752;23.576;2024-03-08T05:49:16;29.90;;;15.80;;
61356;SDS011;47227;46.752;23.576;2024-03-08T05:51:45;33.50;;;15.10;;
61356;SDS011;47227;46.752;23.576;2024-03-08T05:54:16;29.60;;;16.20;;
61356;SDS011;47227;46.752;23.576;2024-03-08T05:56:47;29.50;;;15.20;;
61356;SDS011;47227;46.752;23.576;2024-03-08T05:59:16;30.10;;;15.20;;
61356;SDS011;47227;46.752;23.576;2024-03-08T06:01:46;38.00;;;16.60;;
61356;SDS011;47227;46.752;23.576;2024-03-08T06:04:15;36.50;;;16.40;;
61356;SDS011;47227;46.752;23.576;2024-03-08T06:06:46;33.80;;;16.80;;
61356;SDS011;47227;46.752;23.576;2024-03-08T06:09:19;30.90;;;15.90;;
61356;SDS011;47227;46.752;23.576;2024-03-08T06:11:52;33.70;;;16.50;;
61356;SDS011;47227;46.752;23.576;2024-03-08T06:14:22;36.60;;;18.40;;
61356;SDS011;47227;46.752;23.576;2024-03-08T06:16:51;33.80;;;17.00;;
61356;SDS011;47227;46.752;23.576;2024-03-08T06:19:20;37.50;;;16.60;;
61356;SDS011;47227;46.752;23.576;2024-03-08T06:21:48;36.60;;;17.10;;
61356;SDS011;47227;46.752;23.576;2024-03-08T06:24:17;39.90;;;17.00;;
61356;SDS011;47227;46.752;23.576;2024-03-08T06:26:46;33.70;;;16.90;;
61356;SDS011;47227;46.752;23.576;2024-03-08T06:29:14;40.70;;;16.80;;
61356;SDS011;47227;46.752;23.576;2024-03-08T06:31:43;30.30;;;15.30;;
61356;SDS011;47227;46.752;23.576;2024-03-08T06:34:11;30.50;;;16.10;;
61356;SDS011;47227;46.752;23.576;2024-03-08T06:36:40;34.60;;;15.30;;
61356;SDS011;47227;46.752;23.576;2024-03-08T06:39:08;40.20;;;18.20;;
61356;SDS011;47227;46.752;23.576;2024-03-08T06:41:38;32.40;;;16.60;;
61356;SDS011;47227;46.752;23.576;2024-03-08T06:44:06;36.90;;;16.40;;
61356;SDS011;47227;46.752;23.576;2024-03-08T06:46:37;35.30;;;17.70;;
61356;SDS011;47227;46.752;23.576;2024-03-08T06:49:06;46.90;;;22.40;;
61356;SDS011;47227;46.752;23.576;2024-03-08T06:51:35;48.20;;;23.30;;
61356;SDS011;47227;46.752;23.576;2024-03-08T06:54:04;47.90;;;23.60;;
61356;SDS011;47227;46.752;23.576;2024-03-08T06:56:37;42.90;;;20.50;;
61356;SDS011;47227;46.752;23.576;2024-03-08T06:59:06;36.80;;;17.90;;
61356;SDS011;47227;46.752;23.576;2024-03-08T07:01:41;34.00;;;17.10;;
61356;SDS011;47227;46.752;23.576;2024-03-08T07:04:09;40.50;;;18.30;;
61356;SDS011;47227;46.752;23.576;2024-03-08T07:06:40;29.60;;;16.70;;
61356;SDS011;47227;46.752;23.576;2024-03-08T07:09:09;36.40;;;16.70;;
61356;SDS011;47227;46.752;23.576;2024-03-08T07:11:38;39.90;;;17.70;;
61356;SDS011;47227;46.752;23.576;2024-03-08T07:14:10;37.60;;;17.10;;
61356;SDS011;47227;46.752;23.576;2024-03-08T07:16:38;45.30;;;18.00;;
61356;SDS011;47227;46.752;23.576;2024-03-08T07:19:07;36.20;;;17.10;;
61356;SDS011;47227;46.752;23.576;2024-03-08T07:21:36;28.60;;;16.50;;
61356;SDS011;47227;46.752;23.576;2024-03-08T07:24:04;34.70;;;18.20;;
61356;SDS011;47227;46.752;23.576;2024-03-08T07:26:45;41.20;;;17.40;;
61356;SDS011;47227;46.752;23.576;2024-03-08T07:29:20;34.90;;;17.30;;
61356;SDS011;47227;46.752;23.576;2024-03-08T07:31:48;38.90;;;18.00;;
61356;SDS011;47227;46.752;23.576;2024-03-08T07:34:30;39.00;;;19.10;;
61356;SDS011;47227;46.752;23.576;2024-03-08T07:37:00;34.70;;;17.50;;
61356;SDS011;47227;46.752;23.576;2024-03-08T07:39:28;32.70;;;18.40;;
61356;SDS011;47227;46.752;23.576;2024-03-08T07:41:57;38.00;;;18.70;;
61356;SDS011;47227;46.752;23.576;2024-03-08T07:44:25;37.90;;;18.20;;
61356;SDS011;47227;46.752;23.576;2024-03-08T07:46:54;35.00;;;18.20;;
61356;SDS011;47227;46.752;23.576;2024-03-08T07:49:25;31.30;;;17.00;;
61356;SDS011;47227;46.752;23.576;2024-03-08T07:51:53;32.90;;;17.30;;
61356;SDS011;47227;46.752;23.576;2024-03-08T07:54:22;35.10;;;19.00;;
61356;SDS011;47227;46.752;23.576;2024-03-08T07:56:50;32.10;;;18.00;;
61356;SDS011;47227;46.752;23.576;2024-03-08T07:59:19;33.30;;;17.90;;
61356;SDS011;47227;46.752;23.576;2024-03-08T08:01:49;30.70;;;17.10;;
61356;SDS011;47227;46.752;23.576;2024-03-08T08:04:17;30.10;;;16.70;;
61356;SDS011;47227;46.752;23.576;2024-03-08T08:06:47;33.10;;;18.60;;
61356;SDS011;47227;46.752;23.576;2024-03-08T08:09:15;33.70;;;18.00;;
61356;SDS011;47227;46.752;23.576;2024-03-08T08:11:50;33.10;;;17.70;;
61356;SDS011;47227;46.752;23.576;2024-03-08T08:14:18;36.10;;;17.60;;
61356;SDS011;47227;46.752;23.576;2024-03-08T08:16:49;33.70;;;17.70;;
61356;SDS011;47227;46.752;23.576;2024-03-08T08:19:21;33.60;;;17.70;;
61356;SDS011;47227;46.752;23.576;2024-03-08T08:21:49;35.00;;;16.60;;
61356;SDS011;47227;46.752;23.576;2024-03-08T08:24:18;32.30;;;17.20;;
61356;SDS011;47227;46.752;23.576;2024-03-08T08:26:48;37.30;;;19.50;;
61356;SDS011;47227;46.752;23.576;2024-03-08T08:29:17;38.30;;;18.40;;
61356;SDS011;47227;46.752;23.576;2024-03-08T08:31:45;43.90;;;19.30;;
61356;SDS011;47227;46.752;23.576;2024-03-08T08:34:16;35.00;;;17.80;;
61356;SDS011;47227;46.752;23.576;2024-03-08T08:36:47;34.60;;;18.40;;
61356;SDS011;47227;46.752;23.576;2024-03-08T08:39:15;30.90;;;17.40;;
61356;SDS011;47227;46.752;23.576;2024-03-08T08:41:45;30.30;;;17.90;;
61356;SDS011;47227;46.752;23.576;2024-03-08T08:44:13;32.80;;;17.10;;
61356;SDS011;47227;46.752;23.576;2024-03-08T08:46:44;31.60;;;17.80;;
61356;SDS011;47227;46.752;23.576;2024-03-08T08:49:12;39.00;;;19.30;;
61356;SDS011;47227;46.752;23.576;2024-03-08T08:51:52;48.10;;;20.00;;
61356;SDS011;47227;46.752;23.576;2024-03-08T08:54:25;35.60;;;18.80;;
61356;SDS011;47227;46.752;23.576;2024-03-08T08:56:55;34.30;;;19.10;;
61356;SDS011;47227;46.752;23.576;2024-03-08T08:59:24;38.90;;;19.70;;
61356;SDS011;47227;46.752;23.576;2024-03-08T09:01:53;32.10;;;19.50;;
61356;SDS011;47227;46.752;23.576;2024-03-08T09:04:22;31.10;;;18.40;;
61356;SDS011;47227;46.752;23.576;2024-03-08T09:06:51;35.90;;;20.60;;
61356;SDS011;47227;46.752;23.576;2024-03-08T09:09:19;37.70;;;20.50;;
61356;SDS011;47227;46.752;23.576;2024-03-08T09:11:50;40.80;;;19.50;;
61356;SDS011;47227;46.752;23.576;2024-03-08T09:14:19;42.90;;;21.30;;
61356;SDS011;47227;46.752;23.576;2024-03-08T09:16:48;40.60;;;20.30;;
61356;SDS011;47227;46.752;23.576;2024-03-08T09:19:17;42.00;;;20.20;;
61356;SDS011;47227;46.752;23.576;2024-03-08T09:21:47;37.70;;;19.90;;
61356;SDS011;47227;46.752;23.576;2024-03-08T09:24:16;36.20;;;20.10;;
61356;SDS011;47227;46.752;23.576;2024-03-08T09:26:44;38.90;;;20.20;;
61356;SDS011;47227;46.752;23.576;2024-03-08T09:29:12;39.90;;;20.40;;
61356;SDS011;47227;46.752;23.576;2024-03-08T09:31:41;40.50;;;20.90;;
61356;SDS011;47227;46.752;23.576;2024-03-08T09:34:09;36.80;;;19.70;;
61356;SDS011;47227;46.752;23.576;2024-03-08T09:36:46;42.30;;;21.00;;
61356;SDS011;47227;46.752;23.576;2024-03-08T09:39:15;33.80;;;19.00;;
61356;SDS011;47227;46.752;23.576;2024-03-08T09:41:45;37.00;;;20.30;;
61356;SDS011;47227;46.752;23.576;2024-03-08T09:44:16;36.60;;;18.80;;
61356;SDS011;47227;46.752;23.576;2024-03-08T09:46:46;35.40;;;21.10;;
61356;SDS011;47227;46.752;23.576;2024-03-08T09:49:19;40.90;;;21.60;;
61356;SDS011;47227;46.752;23.576;2024-03-08T09:51:47;34.00;;;19.10;;
61356;SDS011;47227;46.752;23.576;2024-03-08T09:54:21;32.80;;;20.10;;
61356;SDS011;47227;46.752;23.576;2024-03-08T09:56:51;34.00;;;19.30;;
61356;SDS011;47227;46.752;23.576;2024-03-08T09:59:21;30.30;;;17.90;;
61356;SDS011;47227;46.752;23.576;2024-03-08T10:01:55;34.30;;;18.20;;
61356;SDS011;47227;46.752;23.576;2024-03-08T10:04:31;32.70;;;17.40;;
61356;SDS011;47227;46.752;23.576;2024-03-08T10:07:00;36.10;;;18.20;;
61356;SDS011;47227;46.752;23.576;2024-03-08T10:09:29;33.50;;;19.70;;
61356;SDS011;47227;46.752;23.576;2024-03-08T10:11:58;39.70;;;20.10;;
61356;SDS011;47227;46.752;23.576;2024-03-08T10:14:27;36.20;;;18.00;;
61356;SDS011;47227;46.752;23.576;2024-03-08T10:16:57;30.90;;;17.60;;
61356;SDS011;47227;46.752;23.576;2024-03-08T10:19:29;43.80;;;22.90;;
61356;SDS011;47227;46.752;23.576;2024-03-08T10:21:58;28.90;;;18.50;;
61356;SDS011;47227;46.752;23.576;2024-03-08T10:24:27;34.90;;;20.40;;
61356;SDS011;47227;46.752;23.576;2024-03-08T10:27:00;32.40;;;20.00;;
61356;SDS011;47227;46.752;23.576;2024-03-08T10:29:32;35.20;;;20.30;;
61356;SDS011;47227;46.752;23.576;2024-03-08T10:32:01;41.00;;;24.30;;
61356;SDS011;47227;46.752;23.576;2024-03-08T10:34:30;35.70;;;20.30;;
61356;SDS011;47227;46.752;23.576;2024-03-08T10:37:04;35.40;;;19.20;;
61356;SDS011;47227;46.752;23.576;2024-03-08T10:39:35;43.20;;;23.10;;
61356;SDS011;47227;46.752;23.576;2024-03-08T10:42:07;44.70;;;20.50;;
61356;SDS011;47227;46.752;23.576;2024-03-08T10:44:46;36.50;;;20.80;;
61356;SDS011;47227;46.752;23.576;2024-03-08T10:47:26;37.90;;;20.60;;
61356;SDS011;47227;46.752;23.576;2024-03-08T10:52:33;37.30;;;18.90;;
61356;SDS011;47227;46.752;23.576;2024-03-08T10:55:03;38.00;;;21.20;;
61356;SDS011;47227;46.752;23.576;2024-03-08T10:57:36;36.80;;;20.00;;
61356;SDS011;47227;46.752;23.576;2024-03-08T11:00:07;36.00;;;19.60;;
61356;SDS011;47227;46.752;23.576;2024-03-08T11:02:43;33.60;;;18.90;;
61356;SDS011;47227;46.752;23.576;2024-03-08T11:05:15;39.60;;;19.70;;
61356;SDS011;47227;46.752;23.576;2024-03-08T11:16:12;34.90;;;20.80;;
61356;SDS011;47227;46.752;23.576;2024-03-08T11:18:54;36.10;;;20.20;;
61356;SDS011;47227;46.752;23.576;2024-03-08T11:21:32;31.60;;;20.00;;
61356;SDS011;47227;46.752;23.576;2024-03-08T11:24:02;33.50;;;19.90;;
61356;SDS011;47227;46.752;23.576;2024-03-08T11:26:35;37.00;;;19.70;;
61356;SDS011;47227;46.752;23.576;2024-03-08T11:32:05;32.70;;;18.70;;
61356;SDS011;47227;46.752;23.576;2024-03-08T11:34:33;35.60;;;19.60;;
61356;SDS011;47227;46.752;23.576;2024-03-08T11:37:05;36.80;;;19.90;;
61356;SDS011;47227;46.752;23.576;2024-03-08T11:42:19;32.70;;;18.20;;
61356;SDS011;47227;46.752;23.576;2024-03-08T11:44:48;34.70;;;17.80;;
61356;SDS011;47227;46.752;23.576;2024-03-08T11:47:19;37.00;;;18.20;;
61356;SDS011;47227;46.752;23.576;2024-03-08T11:49:49;28.30;;;16.10;;
61356;SDS011;47227;46.752;23.576;2024-03-08T11:52:18;30.50;;;17.60;;
61356;SDS011;47227;46.752;23.576;2024-03-08T11:54:53;33.10;;;17.70;;
61356;SDS011;47227;46.752;23.576;2024-03-08T11:57:23;36.10;;;18.50;;
61356;SDS011;47227;46.752;23.576;2024-03-08T11:59:55;29.80;;;16.90;;
61356;SDS011;47227;46.752;23.576;2024-03-08T12:02:25;31.70;;;18.50;;
61356;SDS011;47227;46.752;23.576;2024-03-08T12:04:57;29.90;;;17.10;;
61356;SDS011;47227;46.752;23.576;2024-03-08T12:07:31;34.10;;;16.40;;
61356;SDS011;47227;46.752;23.576;2024-03-08T12:10:16;30.70;;;17.50;;
61356;SDS011;47227;46.752;23.576;2024-03-08T12:12:47;28.20;;;16.90;;
61356;SDS011;47227;46.752;23.576;2024-03-08T12:15:20;24.80;;;15.80;;
61356;SDS011;47227;46.752;23.576;2024-03-08T12:17:50;25.90;;;15.80;;
61356;SDS011;47227;46.752;23.576;2024-03-08T12:20:21;24.90;;;15.00;;
61356;SDS011;47227;46.752;23.576;2024-03-08T12:22:50;22.90;;;14.40;;
61356;SDS011;47227;46.752;23.576;2024-03-08T12:25:26;25.70;;;14.20;;
61356;SDS011;47227;46.752;23.576;2024-03-08T12:27:56;24.10;;;14.90;;
61356;SDS011;47227;46.752;23.576;2024-03-08T12:30:26;25.20;;;13.70;;
61356;SDS011;47227;46.752;23.576;2024-03-08T12:33:01;23.30;;;13.30;;
61356;SDS011;47227;46.752;23.576;2024-03-08T12:35:30;23.10;;;13.00;;
61356;SDS011;47227;46.752;23.576;2024-03-08T12:38:00;23.20;;;12.10;;
61356;SDS011;47227;46.752;23.576;2024-03-08T12:40:30;18.10;;;12.50;;
61356;SDS011;47227;46.752;23.576;2024-03-08T12:43:02;17.40;;;11.10;;
61356;SDS011;47227;46.752;23.576;2024-03-08T12:45:30;16.00;;;10.80;;
61356;SDS011;47227;46.752;23.576;2024-03-08T12:48:00;18.40;;;9.00;;
61356;SDS011;47227;46.752;23.576;2024-03-08T12:50:28;15.90;;;10.50;;
61356;SDS011;47227;46.752;23.576;2024-03-08T12:52:58;13.90;;;10.30;;
61356;SDS011;47227;46.752;23.576;2024-03-08T12:55:26;15.40;;;9.80;;
61356;SDS011;47227;46.752;23.576;2024-03-08T12:57:55;13.30;;;8.90;;
61356;SDS011;47227;46.752;23.576;2024-03-08T13:00:24;15.80;;;9.80;;
61356;SDS011;47227;46.752;23.576;2024-03-08T13:02:52;20.70;;;10.30;;
61356;SDS011;47227;46.752;23.576;2024-03-08T13:05:21;17.50;;;10.40;;
61356;SDS011;47227;46.752;23.576;2024-03-08T13:07:50;11.90;;;8.10;;
61356;SDS011;47227;46.752;23.576;2024-03-08T13:10:18;11.40;;;8.20;;
61356;SDS011;47227;46.752;23.576;2024-03-08T13:12:48;13.90;;;7.70;;
61356;SDS011;47227;46.752;23.576;2024-03-08T13:15:21;13.90;;;7.70;;
61356;SDS011;47227;46.752;23.576;2024-03-08T13:17:49;16.00;;;8.00;;
61356;SDS011;47227;46.752;23.576;2024-03-08T13:20:18;13.00;;;7.10;;
61356;SDS011;47227;46.752;23.576;2024-03-08T13:22:58;14.80;;;8.60;;
61356;SDS011;47227;46.752;23.576;2024-03-08T13:25:29;17.10;;;9.20;;
61356;SDS011;47227;46.752;23.576;2024-03-08T13:27:59;13.30;;;7.70;;
61356;SDS011;47227;46.752;23.576;2024-03-08T13:30:29;20.40;;;10.70;;
61356;SDS011;47227;46.752;23.576;2024-03-08T13:32:59;16.90;;;9.20;;
61356;SDS011;47227;46.752;23.576;2024-03-08T13:35:27;23.30;;;10.60;;
61356;SDS011;47227;46.752;23.576;2024-03-08T13:37:58;8.10;;;6.90;;
61356;SDS011;47227;46.752;23.576;2024-03-08T13:40:27;14.70;;;7.30;;
61356;SDS011;47227;46.752;23.576;2024-03-08T13:42:55;10.70;;;6.20;;
61356;SDS011;47227;46.752;23.576;2024-03-08T13:45:24;10.30;;;7.20;;
61356;SDS011;47227;46.752;23.576;2024-03-08T13:47:53;9.80;;;7.50;;
61356;SDS011;47227;46.752;23.576;2024-03-08T13:50:23;8.70;;;6.40;;
61356;SDS011;47227;46.752;23.576;2024-03-08T13:52:52;14.70;;;8.30;;
61356;SDS011;47227;46.752;23.576;2024-03-08T13:55:23;11.70;;;7.90;;
61356;SDS011;47227;46.752;23.576;2024-03-08T13:57:56;8.90;;;6.90;;
61356;SDS011;47227;46.752;23.576;2024-03-08T14:00:28;9.30;;;6.40;;
61356;SDS011;47227;46.752;23.576;2024-03-08T14:03:01;9.40;;;6.30;;
61356;SDS011;47227;46.752;23.576;2024-03-08T14:05:39;8.20;;;6.10;;
61356;SDS011;47227;46.752;23.576;2024-03-08T14:08:09;10.50;;;6.50;;
61356;SDS011;47227;46.752;23.576;2024-03-08T14:10:40;11.00;;;7.20;;
61356;SDS011;47227;46.752;23.576;2024-03-08T14:13:10;12.00;;;8.10;;
61356;SDS011;47227;46.752;23.576;2024-03-08T14:15:39;11.20;;;7.90;;
61356;SDS011;47227;46.752;23.576;2024-03-08T14:18:10;11.00;;;6.70;;
61356;SDS011;47227;46.752;23.576;2024-03-08T14:20:41;8.80;;;6.70;;
61356;SDS011;47227;46.752;23.576;2024-03-08T14:23:10;11.70;;;7.30;;
61356;SDS011;47227;46.752;23.576;2024-03-08T14:25:40;8.80;;;7.00;;
61356;SDS011;47227;46.752;23.576;2024-03-08T14:28:09;12.30;;;8.00;;
61356;SDS011;47227;46.752;23.576;2024-03-08T14:30:38;10.20;;;6.60;;
61356;SDS011;47227;46.752;23.576;2024-03-08T14:33:09;13.70;;;8.20;;
61356;SDS011;47227;46.752;23.576;2024-03-08T14:35:38;15.30;;;8.90;;
61356;SDS011;47227;46.752;23.576;2024-03-08T14:38:08;6.70;;;5.30;;
61356;SDS011;47227;46.752;23.576;2024-03-08T14:40:38;7.00;;;5.50;;
61356;SDS011;47227;46.752;23.576;2024-03-08T14:43:07;8.80;;;6.00;;